Time;durP1;ratioP1;P1;durP2;ratioP2;P2;SDS_P1;SDS_P2;PMS_P1;PMS_P2;Temp;Humidity;BMP_temperature;BMP_pressure;BME280_temperature;BME280_humidity;BME280_pressure;Samples;Min_cycle;Max_cycle;Signal;HPM_P1;HPM_P2
2023/09/13 00:00:49;;;;;;;24.50;20.48;;;18.80;99.90;;;;;;7297073;32;20739;-56
2023/09/13 00:04:54;;;;;;;22.05;18.62;;;18.80;99.90;;;;;;7292315;32;20139;-56
2023/09/13 00:08:56;;;;;;;22.85;18.83;;;18.80;99.90;;;;;;7295522;32;20620;-55
2023/09/13 00:12:58;;;;;;;25.37;18.65;;;18.80;99.90;;;;;;7300868;32;20514;-55
2023/09/13 00:16:59;;;;;;;25.33;19.60;;;18.70;99.90;;;;;;7308872;32;20274;-56
2023/09/13 00:21:01;;;;;;;27.87;20.02;;;18.80;99.90;;;;;;7305877;32;20104;-56
2023/09/13 00:25:03;;;;;;;25.75;20.30;;;18.70;99.90;;;;;;7304169;32;20318;-55
2023/09/13 00:29:05;;;;;;;25.60;20.48;;;18.70;99.90;;;;;;7301698;32;20127;-55
2023/09/13 00:33:07;;;;;;;24.95;19.65;;;18.80;99.90;;;;;;7309602;32;20503;-55
2023/09/13 00:37:09;;;;;;;27.98;21.87;;;18.70;99.90;;;;;;7303749;32;20131;-56
2023/09/13 00:41:11;;;;;;;27.85;20.48;;;18.80;99.90;;;;;;7299943;32;20127;-56
2023/09/13 00:45:12;;;;;;;33.30;23.12;;;18.70;99.90;;;;;;7301333;32;20173;-55
2023/09/13 00:49:14;;;;;;;27.85;21.92;;;18.70;99.90;;;;;;7307667;32;20825;-55
2023/09/13 00:53:18;;;;;;;22.42;17.62;;;18.70;99.90;;;;;;7312166;32;20229;-57
2023/09/13 00:57:22;;;;;;;28.02;20.80;;;18.60;99.90;;;;;;7306590;32;20484;-56
2023/09/13 01:01:24;;;;;;;29.00;20.37;;;18.60;99.90;;;;;;7296530;32;20112;-56
2023/09/13 01:05:26;;;;;;;31.62;20.35;;;18.60;99.90;;;;;;7305610;32;20139;-56
2023/09/13 01:09:28;;;;;;;24.48;19.77;;;18.60;99.90;;;;;;7310861;32;20593;-56
2023/09/13 01:13:30;;;;;;;27.70;18.85;;;18.60;99.90;;;;;;7296845;32;20704;-57
2023/09/13 01:17:37;;;;;;;23.33;16.55;;;18.60;99.90;;;;;;7308733;32;20111;-55
2023/09/13 01:21:45;;;;;;;21.85;15.38;;;18.60;99.90;;;;;;7302032;32;20168;-56
2023/09/13 01:26:29;;;;;;;20.02;15.45;;;18.60;99.90;;;;;;7311357;32;20170;-55
2023/09/13 01:30:32;;;;;;;24.08;17.65;;;18.50;99.90;;;;;;7227600;32;20103;-56
2023/09/13 01:34:33;;;;;;;22.20;15.30;;;18.60;99.90;;;;;;7304491;32;20423;-57
2023/09/13 01:38:36;;;;;;;21.95;15.63;;;18.60;99.90;;;;;;7309731;32;20186;-55
2023/09/13 01:42:41;;;;;;;22.73;17.15;;;18.50;99.90;;;;;;7305278;32;20116;-55
2023/09/13 01:46:44;;;;;;;23.92;17.15;;;18.50;99.90;;;;;;7314889;32;20134;-54
2023/09/13 01:50:48;;;;;;;33.45;23.55;;;18.50;99.90;;;;;;7304172;32;20257;-54
2023/09/13 01:54:49;;;;;;;38.88;25.45;;;18.60;99.90;;;;;;7307650;32;20111;-55
2023/09/13 01:58:51;;;;;;;38.92;25.00;;;18.50;99.90;;;;;;7305924;32;20244;-55
2023/09/13 02:02:53;;;;;;;37.78;25.15;;;18.50;99.90;;;;;;7311288;32;20798;-55
2023/09/13 02:06:55;;;;;;;42.38;25.42;;;18.50;99.90;;;;;;7305546;32;20112;-55
2023/09/13 02:10:56;;;;;;;42.85;27.37;;;18.60;99.90;;;;;;7315024;32;21946;-55
2023/09/13 02:14:58;;;;;;;44.58;27.45;;;18.50;99.90;;;;;;7306469;32;20108;-57
2023/09/13 02:19:00;;;;;;;45.25;28.62;;;18.60;99.90;;;;;;7305252;32;20210;-56
2023/09/13 02:23:02;;;;;;;48.63;29.87;;;18.50;99.90;;;;;;7302003;32;20246;-56
2023/09/13 02:27:05;;;;;;;53.55;33.85;;;18.50;99.90;;;;;;7302473;32;20103;-55
2023/09/13 02:31:07;;;;;;;57.05;34.58;;;18.50;99.90;;;;;;7302969;32;20315;-56
2023/09/13 02:35:09;;;;;;;60.30;35.67;;;18.60;99.90;;;;;;7302683;32;20131;-56
2023/09/13 02:39:29;;;;;;;62.50;37.25;;;18.50;99.90;;;;;;7308118;32;20179;-56
2023/09/13 02:43:31;;;;;;;64.47;36.33;;;18.50;99.90;;;;;;7306115;32;20755;-56
2023/09/13 02:47:33;;;;;;;62.60;37.47;;;18.50;99.90;;;;;;7290331;32;20176;-56
2023/09/13 02:51:34;;;;;;;65.85;39.10;;;18.50;99.90;;;;;;7302055;32;20138;-55
2023/09/13 02:55:36;;;;;;;67.37;38.58;;;18.50;99.90;;;;;;7304084;32;20844;-55
2023/09/13 02:59:39;;;;;;;73.30;39.53;;;18.60;99.90;;;;;;7297218;32;20194;-56
2023/09/13 03:03:41;;;;;;;67.07;39.13;;;18.60;99.90;;;;;;7302695;32;20268;-55
2023/09/13 03:07:43;;;;;;;71.12;40.15;;;18.50;99.90;;;;;;7310491;32;20107;-55
2023/09/13 03:11:45;;;;;;;68.60;38.92;;;18.60;99.90;;;;;;7300535;32;20557;-55
2023/09/13 03:15:47;;;;;;;67.30;40.20;;;18.60;99.90;;;;;;7305559;32;20202;-55
2023/09/13 03:19:49;;;;;;;67.47;39.30;;;18.50;99.90;;;;;;7309172;32;20108;-56
2023/09/13 03:23:51;;;;;;;69.95;38.45;;;18.50;99.90;;;;;;7304446;32;20112;-56
2023/09/13 03:27:53;;;;;;;72.40;39.90;;;18.40;99.90;;;;;;7294478;32;20116;-56
2023/09/13 03:31:55;;;;;;;65.97;38.33;;;18.50;99.90;;;;;;7298114;32;20592;-56
2023/09/13 03:35:56;;;;;;;66.18;37.85;;;18.50;99.90;;;;;;7301322;32;20219;-56
2023/09/13 03:39:58;;;;;;;66.82;36.75;;;18.40;99.90;;;;;;7303392;32;20112;-56
2023/09/13 03:44:00;;;;;;;68.57;38.97;;;18.40;99.90;;;;;;7305770;32;20121;-57
2023/09/13 03:48:02;;;;;;;69.12;38.97;;;18.40;99.90;;;;;;7311272;32;20591;-56
2023/09/13 03:52:04;;;;;;;68.87;38.63;;;18.50;99.90;;;;;;7295928;32;20107;-56
2023/09/13 03:56:06;;;;;;;66.47;38.85;;;18.40;99.90;;;;;;7303014;32;20108;-56
2023/09/13 04:00:12;;;;;;;71.30;39.53;;;18.40;99.90;;;;;;7298458;32;20182;-56
2023/09/13 04:04:14;;;;;;;70.05;40.28;;;18.40;99.90;;;;;;7301747;32;20138;-57
2023/09/13 04:08:16;;;;;;;68.93;39.45;;;18.40;99.90;;;;;;7311218;32;20179;-55
2023/09/13 04:12:18;;;;;;;73.72;40.78;;;18.30;99.90;;;;;;7306589;32;20157;-56
2023/09/13 04:16:20;;;;;;;75.57;41.22;;;18.30;99.90;;;;;;7305583;32;20223;-56
2023/09/13 04:20:22;;;;;;;73.32;40.10;;;18.20;99.90;;;;;;7309119;32;20185;-56
2023/09/13 04:24:24;;;;;;;78.07;42.85;;;18.20;99.90;;;;;;7310214;32;20111;-56
2023/09/13 04:28:26;;;;;;;76.82;42.70;;;18.30;99.90;;;;;;7311401;32;20116;-55
2023/09/13 04:32:27;;;;;;;79.65;42.95;;;18.30;99.90;;;;;;7297895;32;20280;-55
2023/09/13 04:36:29;;;;;;;74.45;42.10;;;18.20;99.90;;;;;;7306378;32;20210;-56
2023/09/13 04:40:31;;;;;;;80.40;43.25;;;18.20;99.90;;;;;;7312052;32;20365;-55
2023/09/13 04:44:33;;;;;;;76.45;43.75;;;18.20;99.90;;;;;;7294825;32;20313;-56
2023/09/13 04:48:35;;;;;;;79.37;43.53;;;18.20;99.90;;;;;;7298728;32;20104;-55
2023/09/13 04:52:37;;;;;;;75.72;42.67;;;18.20;99.90;;;;;;7301936;32;20478;-56
2023/09/13 04:56:38;;;;;;;73.72;42.88;;;18.20;99.90;;;;;;7303086;32;20129;-55
2023/09/13 05:00:40;;;;;;;66.50;40.67;;;18.10;99.90;;;;;;7313110;32;20142;-56
2023/09/13 05:04:43;;;;;;;80.85;41.65;;;18.20;99.90;;;;;;7307601;32;20132;-56
2023/09/13 05:08:45;;;;;;;76.37;43.65;;;18.10;99.90;;;;;;7302525;32;20193;-56
2023/09/13 05:12:49;;;;;;;76.40;41.50;;;18.10;99.90;;;;;;7304944;32;20123;-56
2023/09/13 05:16:51;;;;;;;70.82;40.60;;;18.00;99.90;;;;;;7307051;32;20246;-57
2023/09/13 05:20:53;;;;;;;76.28;41.97;;;18.00;99.90;;;;;;7303997;32;20396;-57
2023/09/13 05:24:55;;;;;;;72.65;41.35;;;18.00;99.90;;;;;;7306239;32;20168;-56
2023/09/13 05:28:57;;;;;;;73.97;43.33;;;18.00;99.90;;;;;;7310375;32;20423;-56
2023/09/13 05:32:58;;;;;;;72.25;41.80;;;18.00;99.90;;;;;;7305949;32;20186;-56
2023/09/13 05:37:00;;;;;;;71.53;41.67;;;18.00;99.90;;;;;;7304924;32;20300;-56
2023/09/13 05:41:09;;;;;;;71.12;40.65;;;18.00;99.90;;;;;;7308613;32;20162;-57
2023/09/13 05:45:11;;;;;;;73.45;42.33;;;18.00;99.90;;;;;;7312946;32;20153;-56
2023/09/13 05:49:13;;;;;;;77.85;43.28;;;18.10;99.90;;;;;;7307730;32;20518;-56
2023/09/13 05:53:15;;;;;;;70.32;41.78;;;18.00;99.90;;;;;;7306178;32;20356;-56
2023/09/13 05:57:17;;;;;;;74.50;43.78;;;18.00;99.90;;;;;;7308006;32;20219;-56
2023/09/13 06:01:19;;;;;;;76.07;42.65;;;18.00;99.90;;;;;;7305499;32;20115;-57
2023/09/13 06:05:21;;;;;;;76.80;43.10;;;18.00;99.90;;;;;;7309758;32;20552;-56
2023/09/13 06:09:22;;;;;;;79.55;43.10;;;18.10;99.90;;;;;;7293267;32;20245;-56
2023/09/13 06:13:24;;;;;;;73.87;40.65;;;18.00;99.90;;;;;;7296929;32;20111;-56
2023/09/13 06:17:26;;;;;;;74.35;40.40;;;18.00;99.90;;;;;;7297343;32;20111;-56
2023/09/13 06:21:28;;;;;;;73.45;40.72;;;18.00;99.90;;;;;;7301723;32;20191;-56
2023/09/13 06:25:29;;;;;;;72.50;40.70;;;18.00;99.90;;;;;;7301562;32;20439;-56
2023/09/13 06:29:31;;;;;;;73.10;41.72;;;18.00;99.90;;;;;;7300966;32;20203;-56
2023/09/13 06:33:33;;;;;;;75.90;41.42;;;18.00;99.90;;;;;;7297625;32;20131;-55
2023/09/13 06:37:39;;;;;;;74.32;41.83;;;18.10;99.90;;;;;;7301665;32;20288;-56
2023/09/13 06:41:41;;;;;;;71.47;38.78;;;18.00;99.90;;;;;;7289022;32;20478;-56
2023/09/13 06:45:43;;;;;;;72.10;39.03;;;18.00;99.90;;;;;;7294384;32;20312;-55
2023/09/13 06:50:03;;;;;;;65.82;39.00;;;18.00;99.90;;;;;;7301801;32;20142;-56
2023/09/13 06:54:07;;;;;;;64.75;37.15;;;18.00;99.90;;;;;;7297912;32;20132;-56
2023/09/13 06:58:11;;;;;;;60.60;37.05;;;18.00;99.90;;;;;;7300986;32;20196;-56
2023/09/13 07:02:15;;;;;;;63.40;37.58;;;18.00;99.90;;;;;;7299095;32;20621;-56
2023/09/13 07:06:33;;;;;;;59.30;35.95;;;18.10;99.90;;;;;;7300188;32;20369;-56
2023/09/13 07:10:35;;;;;;;60.25;36.00;;;18.10;99.90;;;;;;7293293;32;20116;-56
2023/09/13 07:14:37;;;;;;;62.75;36.80;;;18.20;99.90;;;;;;7291269;32;20313;-56
2023/09/13 07:18:38;;;;;;;59.38;35.08;;;18.30;99.90;;;;;;7298923;32;20419;-56
2023/09/13 07:22:40;;;;;;;55.55;33.88;;;18.30;99.90;;;;;;7289899;32;20346;-56
2023/09/13 07:26:42;;;;;;;55.30;33.05;;;18.30;99.90;;;;;;7299546;32;20169;-56
2023/09/13 07:30:44;;;;;;;55.15;34.35;;;18.20;99.90;;;;;;7298104;32;20277;-56
2023/09/13 07:34:46;;;;;;;57.75;35.70;;;18.30;99.90;;;;;;7297306;32;20104;-56
2023/09/13 07:38:48;;;;;;;53.80;32.78;;;18.20;99.90;;;;;;7292633;32;20126;-55
2023/09/13 07:42:50;;;;;;;51.60;31.65;;;18.30;99.90;;;;;;7296176;32;20191;-56
2023/09/13 07:46:51;;;;;;;57.10;33.78;;;18.20;99.90;;;;;;7297045;32;20147;-56
2023/09/13 07:50:53;;;;;;;54.78;31.83;;;18.20;99.90;;;;;;7306556;32;20180;-56
2023/09/13 07:54:55;;;;;;;50.12;31.87;;;18.20;99.90;;;;;;7293234;32;21198;-55
2023/09/13 07:58:57;;;;;;;52.05;30.45;;;18.30;99.90;;;;;;7297971;32;20112;-56
2023/09/13 08:03:00;;;;;;;49.78;30.25;;;18.20;99.90;;;;;;7303147;32;20561;-56
2023/09/13 08:07:02;;;;;;;47.38;29.42;;;18.30;99.90;;;;;;7304599;32;20187;-56
2023/09/13 08:11:04;;;;;;;47.85;30.23;;;18.30;99.90;;;;;;7301800;32;21938;-56
2023/09/13 08:15:07;;;;;;;44.92;29.12;;;18.50;99.90;;;;;;7298143;32;20653;-57
2023/09/13 08:19:08;;;;;;;42.67;27.65;;;18.60;99.90;;;;;;7303205;32;20203;-56
2023/09/13 08:23:10;;;;;;;38.97;26.25;;;18.60;99.90;;;;;;7304166;32;20188;-57
2023/09/13 08:27:12;;;;;;;42.08;26.58;;;18.60;99.90;;;;;;7302014;32;20204;-57
2023/09/13 08:31:14;;;;;;;41.13;25.90;;;18.70;99.90;;;;;;7299181;32;20124;-56
2023/09/13 08:35:15;;;;;;;36.22;23.73;;;18.60;99.90;;;;;;7299063;32;20597;-56
2023/09/13 08:39:17;;;;;;;40.20;25.80;;;18.50;99.90;;;;;;7310187;32;20139;-56
2023/09/13 08:43:19;;;;;;;38.50;25.67;;;18.50;99.90;;;;;;7319228;32;20165;-56
2023/09/13 08:47:26;;;;;;;37.95;24.12;;;18.50;99.90;;;;;;7315196;32;20168;-56
2023/09/13 08:51:37;;;;;;;37.78;23.00;;;18.40;99.90;;;;;;7295940;32;20107;-56
2023/09/13 08:55:40;;;;;;;33.42;22.23;;;18.50;99.90;;;;;;7316119;32;20230;-56
2023/09/13 08:59:42;;;;;;;30.80;21.45;;;18.50;99.90;;;;;;7312465;32;20168;-56
2023/09/13 09:03:46;;;;;;;35.45;21.30;;;18.50;99.90;;;;;;7311811;32;20267;-56
2023/09/13 09:07:49;;;;;;;32.63;21.62;;;18.50;99.90;;;;;;7319288;32;20536;-56
2023/09/13 09:11:56;;;;;;;31.95;19.23;;;18.70;99.90;;;;;;7314678;32;20158;-56
2023/09/13 09:15:59;;;;;;;27.20;19.02;;;18.80;99.90;;;;;;7306129;32;20115;-56
2023/09/13 09:20:02;;;;;;;24.87;17.73;;;19.00;99.90;;;;;;7313964;32;20171;-56
2023/09/13 09:24:04;;;;;;;26.70;16.58;;;19.30;99.90;;;;;;7302855;32;20109;-56
2023/09/13 09:28:06;;;;;;;22.27;14.55;;;19.50;99.90;;;;;;7300381;32;20290;-56
2023/09/13 09:32:08;;;;;;;20.05;15.05;;;19.50;99.90;;;;;;7296482;32;20108;-57
2023/09/13 09:36:13;;;;;;;21.00;14.38;;;19.80;99.90;;;;;;7297667;32;20221;-57
2023/09/13 09:40:15;;;;;;;18.87;13.10;;;20.20;99.90;;;;;;7296419;32;20513;-56
2023/09/13 09:44:19;;;;;;;15.48;11.80;;;20.40;99.90;;;;;;7300553;32;20104;-56
2023/09/13 09:48:21;;;;;;;18.02;13.50;;;20.60;99.90;;;;;;7286212;32;20222;-57
2023/09/13 09:52:23;;;;;;;21.23;13.27;;;20.60;99.90;;;;;;7298797;32;20195;-56
2023/09/13 09:56:24;;;;;;;22.80;14.27;;;20.60;99.90;;;;;;7300490;32;20115;-57
2023/09/13 10:00:26;;;;;;;23.58;15.55;;;20.40;99.90;;;;;;7299970;32;20165;-57
2023/09/13 10:04:28;;;;;;;25.40;14.82;;;20.30;99.90;;;;;;7295935;32;20234;-56
2023/09/13 10:08:45;;;;;;;20.40;14.10;;;20.30;99.90;;;;;;7295811;32;20218;-58
2023/09/13 10:12:50;;;;;;;20.42;15.45;;;20.30;99.90;;;;;;7295431;32;20325;-57
2023/09/13 10:16:57;;;;;;;22.52;13.73;;;20.40;99.90;;;;;;7303421;32;20139;-57
2023/09/13 10:20:59;;;;;;;;;;;20.70;99.90;;;;;;7297509;32;20262;-57
2023/09/13 10:25:05;;;;;;;19.05;13.02;;;20.80;99.90;;;;;;7299985;32;20273;-57
2023/09/13 10:29:26;;;;;;;16.75;12.20;;;21.30;99.90;;;;;;7297837;32;20169;-57
2023/09/13 10:33:32;;;;;;;15.57;11.45;;;21.70;99.90;;;;;;7295922;32;20227;-57
2023/09/13 10:37:53;;;;;;;12.05;9.43;;;21.50;99.90;;;;;;7299879;32;20264;-56
2023/09/13 10:42:07;;;;;;;13.07;9.85;;;20.50;99.90;;;;;;7282324;32;20114;-56
2023/09/13 10:46:10;;;;;;;13.15;8.90;;;19.80;99.90;;;;;;7300076;32;20596;-56
2023/09/13 10:50:14;;;;;;;12.20;7.85;;;19.40;99.90;;;;;;7300022;32;20482;-56
2023/09/13 10:54:19;;;;;;;8.52;6.82;;;18.80;99.90;;;;;;7295436;32;20104;-57
2023/09/13 10:58:22;;;;;;;8.25;4.37;;;18.50;99.90;;;;;;7295317;32;20142;-57
2023/09/13 11:02:25;;;;;;;11.27;3.83;;;18.40;99.90;;;;;;7295623;32;20226;-56
2023/09/13 11:06:27;;;;;;;7.05;2.75;;;18.50;99.90;;;;;;7298236;32;20112;-57
2023/09/13 11:10:32;;;;;;;5.47;3.30;;;18.30;99.90;;;;;;7297131;32;20115;-57
2023/09/13 11:14:34;;;;;;;5.12;3.45;;;18.30;99.90;;;;;;7299895;32;20107;-57
2023/09/13 11:18:47;;;;;;;8.77;4.28;;;18.20;99.90;;;;;;7301477;32;20395;-57
2023/09/13 11:23:14;;;;;;;3.25;2.95;;;18.00;99.90;;;;;;7296059;32;20131;-56
2023/09/13 11:27:33;;;;;;;5.07;3.90;;;18.00;99.90;;;;;;7297703;32;20812;-56
2023/09/13 11:31:59;;;;;;;4.53;2.78;;;17.90;99.90;;;;;;7282776;32;20498;-56
2023/09/13 11:36:03;;;;;;;5.62;2.55;;;17.80;99.90;;;;;;7294536;32;20790;-57
2023/09/13 11:40:10;;;;;;;3.33;2.60;;;17.90;99.90;;;;;;7297319;32;20246;-57
2023/09/13 11:44:14;;;;;;;3.25;1.98;;;17.90;99.90;;;;;;7295190;32;20153;-58
2023/09/13 11:48:40;;;;;;;5.07;2.30;;;18.00;99.90;;;;;;7296665;32;20773;-58
2023/09/13 11:53:16;;;;;;;4.12;2.25;;;18.00;99.90;;;;;;7302222;32;20108;-57
2023/09/13 11:57:21;;;;;;;3.90;2.17;;;18.10;99.90;;;;;;7295376;32;20246;-57
2023/09/13 12:01:29;;;;;;;4.40;1.62;;;18.20;99.90;;;;;;7297452;32;20130;-56
2023/09/13 12:05:33;;;;;;;3.87;1.90;;;18.30;99.90;;;;;;7299094;32;20130;-57
2023/09/13 12:09:55;;;;;;;4.78;2.75;;;18.40;99.90;;;;;;7302657;32;20257;-57
2023/09/13 12:14:01;;;;;;;;;;;18.40;99.90;;;;;;7292921;32;21097;-54
2023/09/13 12:18:18;;;;;;;6.05;4.00;;;18.60;99.90;;;;;;7302126;32;20037;-57
2023/09/13 12:22:22;;;;;;;6.37;4.80;;;18.80;99.90;;;;;;7296714;32;20112;-56
2023/09/13 12:26:24;;;;;;;6.50;3.92;;;18.80;99.90;;;;;;7294042;32;20510;-55
2023/09/13 12:30:26;;;;;;;5.50;4.57;;;18.80;99.90;;;;;;7298457;32;20116;-57
2023/09/13 12:34:28;;;;;;;5.57;4.10;;;18.90;99.90;;;;;;7299183;32;20822;-55
2023/09/13 12:38:44;;;;;;;5.53;3.47;;;18.90;99.90;;;;;;7296415;32;20186;-58
2023/09/13 12:42:46;;;;;;;6.12;3.83;;;18.90;99.90;;;;;;7301619;32;20115;-58
2023/09/13 12:46:51;;;;;;;6.75;3.33;;;18.60;99.90;;;;;;7298936;32;20134;-58
2023/09/13 12:50:54;;;;;;;5.47;3.47;;;18.60;99.90;;;;;;7301917;32;20112;-59
2023/09/13 12:54:56;;;;;;;3.30;1.70;;;18.80;99.90;;;;;;7306370;32;20120;-58
2023/09/13 12:59:00;;;;;;;6.72;1.87;;;18.60;99.90;;;;;;7298246;32;20129;-57
2023/09/13 13:03:02;;;;;;;2.97;1.30;;;18.50;99.90;;;;;;7301644;32;20153;-58
2023/09/13 13:07:04;;;;;;;3.60;1.35;;;18.50;99.90;;;;;;7298599;32;20134;-58
2023/09/13 13:11:06;;;;;;;3.12;1.40;;;18.40;99.90;;;;;;7300459;32;20207;-58
2023/09/13 13:15:09;;;;;;;4.60;1.40;;;18.30;99.90;;;;;;7300289;32;20209;-57
2023/09/13 13:19:11;;;;;;;1.83;1.27;;;18.40;99.90;;;;;;7300980;32;20210;-57
2023/09/13 13:23:25;;;;;;;3.87;1.65;;;18.30;99.90;;;;;;7302450;32;20490;-57
2023/09/13 13:27:28;;;;;;;3.20;1.30;;;18.30;99.90;;;;;;7294949;32;20127;-56
2023/09/13 13:31:30;;;;;;;2.97;1.50;;;18.30;99.90;;;;;;7298303;32;20250;-56
2023/09/13 13:35:33;;;;;;;3.60;1.42;;;18.20;99.90;;;;;;7296022;32;20250;-57
2023/09/13 13:39:35;;;;;;;2.28;1.40;;;18.20;99.90;;;;;;7294880;32;20549;-57
2023/09/13 13:43:39;;;;;;;2.45;1.40;;;18.20;99.90;;;;;;7294779;32;20822;-57
2023/09/13 13:47:41;;;;;;;4.05;1.40;;;18.30;99.90;;;;;;7300357;32;21054;-58
2023/09/13 13:51:45;;;;;;;3.15;1.50;;;18.20;99.90;;;;;;7296208;32;20115;-58
2023/09/13 13:55:47;;;;;;;3.55;1.50;;;18.10;99.90;;;;;;7301743;32;20119;-58
2023/09/13 13:59:49;;;;;;;2.78;1.30;;;18.10;99.90;;;;;;7295122;32;20472;-58
2023/09/13 14:03:51;;;;;;;1.73;1.08;;;18.00;99.90;;;;;;7300143;32;20219;-57
2023/09/13 14:07:52;;;;;;;2.72;1.20;;;18.10;99.90;;;;;;7300449;32;20158;-58
2023/09/13 14:11:54;;;;;;;2.62;1.00;;;18.30;99.90;;;;;;7298630;32;20092;-58
2023/09/13 14:15:56;;;;;;;2.53;1.50;;;18.30;99.90;;;;;;7300959;32;20810;-58
2023/09/13 14:19:58;;;;;;;3.40;1.00;;;18.40;99.90;;;;;;7297058;32;20123;-57
2023/09/13 14:24:03;;;;;;;2.78;0.90;;;18.50;99.90;;;;;;7303229;32;20578;-58
2023/09/13 14:28:05;;;;;;;2.58;1.12;;;18.50;99.90;;;;;;7294960;32;20328;-57
2023/09/13 14:32:11;;;;;;;2.27;0.93;;;18.40;99.90;;;;;;7295502;32;20116;-58
2023/09/13 14:36:14;;;;;;;2.90;0.95;;;18.30;99.90;;;;;;7296556;32;20096;-57
2023/09/13 14:40:16;;;;;;;1.70;0.80;;;18.30;99.90;;;;;;7295202;32;20282;-57
2023/09/13 14:44:18;;;;;;;1.85;1.10;;;18.30;99.90;;;;;;7302525;32;20218;-58
2023/09/13 14:48:20;;;;;;;2.53;1.00;;;18.30;99.90;;;;;;7298111;32;20522;-58
2023/09/13 14:52:23;;;;;;;1.70;1.00;;;18.30;99.90;;;;;;7302540;32;20327;-54
2023/09/13 14:56:25;;;;;;;4.20;0.80;;;18.20;99.90;;;;;;7298745;32;20222;-55
2023/09/13 15:00:27;;;;;;;1.50;0.80;;;18.20;99.90;;;;;;7299291;32;20100;-56
2023/09/13 15:04:29;;;;;;;1.80;0.90;;;18.10;99.90;;;;;;7306831;32;20466;-56
2023/09/13 15:08:31;;;;;;;1.48;0.90;;;18.10;99.90;;;;;;7297654;32;20320;-56
2023/09/13 15:12:32;;;;;;;3.90;0.80;;;18.00;99.90;;;;;;7295823;32;20209;-55
2023/09/13 15:16:34;;;;;;;2.55;0.98;;;17.90;99.90;;;;;;7295777;32;20631;-57
2023/09/13 15:20:36;;;;;;;2.17;0.95;;;17.80;99.90;;;;;;7294357;32;20781;-56
2023/09/13 15:24:38;;;;;;;2.05;1.08;;;17.70;99.90;;;;;;7301450;32;20207;-57
2023/09/13 15:28:40;;;;;;;2.80;1.05;;;17.70;99.90;;;;;;7301839;32;20091;-56
2023/09/13 15:32:42;;;;;;;3.45;0.90;;;17.70;99.90;;;;;;7300830;32;20202;-56
2023/09/13 15:36:44;;;;;;;5.60;0.93;;;17.70;99.90;;;;;;7305567;32;20544;-57
2023/09/13 15:40:46;;;;;;;2.17;1.00;;;17.70;99.90;;;;;;7296761;32;20121;-56
2023/09/13 15:44:48;;;;;;;3.03;1.02;;;17.70;99.90;;;;;;7299077;32;20118;-56
2023/09/13 15:48:50;;;;;;;4.60;1.00;;;17.60;99.90;;;;;;7289791;32;20289;-56
2023/09/13 15:52:52;;;;;;;1.60;1.05;;;17.60;99.90;;;;;;7293138;32;20320;-56
2023/09/13 15:56:54;;;;;;;2.37;0.85;;;17.70;99.90;;;;;;7301656;32;20096;-56
2023/09/13 16:00:56;;;;;;;2.40;1.00;;;17.60;99.90;;;;;;7305927;32;20123;-56
2023/09/13 16:04:58;;;;;;;1.50;0.80;;;17.60;99.90;;;;;;7301975;32;20103;-56
2023/09/13 16:09:00;;;;;;;2.78;1.10;;;17.60;99.90;;;;;;7300537;32;20547;-56
2023/09/13 16:13:02;;;;;;;5.37;1.25;;;17.50;99.90;;;;;;7300022;32;20259;-56
2023/09/13 16:17:04;;;;;;;4.30;1.00;;;17.70;99.90;;;;;;7300576;32;20130;-56
2023/09/13 16:21:06;;;;;;;2.47;1.10;;;17.50;99.90;;;;;;7305853;32;20122;-56
2023/09/13 16:25:08;;;;;;;4.62;1.25;;;17.70;99.90;;;;;;7303808;32;20250;-56
2023/09/13 16:29:10;;;;;;;3.95;1.80;;;17.60;99.90;;;;;;7295575;32;20127;-57
2023/09/13 16:33:11;;;;;;;3.45;1.12;;;17.50;99.90;;;;;;7299781;32;20449;-56
2023/09/13 16:37:13;;;;;;;2.55;1.00;;;17.50;99.90;;;;;;7308662;32;20129;-55
2023/09/13 16:41:15;;;;;;;23.77;20.62;;;17.50;99.90;;;;;;7300966;32;20099;-55
2023/09/13 16:45:21;;;;;;;3.58;1.87;;;17.50;99.90;;;;;;7298952;32;20586;-55
2023/09/13 16:49:25;;;;;;;2.35;0.90;;;17.50;99.90;;;;;;7307401;32;20161;-55
2023/09/13 16:53:27;;;;;;;2.45;1.08;;;17.40;99.90;;;;;;7303907;32;20100;-56
2023/09/13 16:57:28;;;;;;;1.48;1.00;;;17.40;99.90;;;;;;7305419;32;20254;-57
2023/09/13 17:01:30;;;;;;;2.80;1.05;;;17.30;99.90;;;;;;7295513;32;20620;-55
2023/09/13 17:05:32;;;;;;;2.65;1.10;;;17.30;99.90;;;;;;7291615;32;20386;-56
2023/09/13 17:09:34;;;;;;;2.72;1.02;;;17.20;99.90;;;;;;7302660;32;20417;-56
2023/09/13 17:13:35;;;;;;;2.40;0.95;;;17.20;99.90;;;;;;7300793;32;20103;-56
2023/09/13 17:17:37;;;;;;;6.12;1.20;;;17.20;99.90;;;;;;7302230;32;20816;-56
2023/09/13 17:21:40;;;;;;;1.85;0.90;;;17.20;99.90;;;;;;7303195;32;20147;-55
2023/09/13 17:25:42;;;;;;;3.47;1.00;;;17.10;99.90;;;;;;7301616;32;20285;-56
2023/09/13 17:29:44;;;;;;;3.92;1.00;;;17.00;99.90;;;;;;7300768;32;20184;-55
2023/09/13 17:33:46;;;;;;;3.15;1.00;;;17.00;99.90;;;;;;7301250;32;20197;-56
2023/09/13 17:37:48;;;;;;;4.18;1.40;;;17.00;99.90;;;;;;7301713;32;20249;-55
2023/09/13 17:41:49;;;;;;;4.30;1.95;;;16.90;99.90;;;;;;7310874;32;20248;-55
2023/09/13 17:45:51;;;;;;;3.00;1.25;;;16.80;99.90;;;;;;7300146;32;20249;-55
2023/09/13 17:49:53;;;;;;;1.48;1.10;;;16.80;99.90;;;;;;7300883;32;20127;-56
2023/09/13 17:53:56;;;;;;;6.15;1.60;;;16.80;99.90;;;;;;7292420;32;20735;-55
2023/09/13 17:57:59;;;;;;;3.28;1.23;;;16.70;99.90;;;;;;7301732;32;21373;-55
2023/09/13 18:02:03;;;;;;;5.20;1.30;;;16.70;99.90;;;;;;7301292;32;20531;-55
2023/09/13 18:06:05;;;;;;;5.25;1.55;;;16.60;99.90;;;;;;7302021;32;20114;-55
2023/09/13 18:10:07;;;;;;;2.70;1.27;;;16.50;99.90;;;;;;7307845;32;20138;-55
2023/09/13 18:14:09;;;;;;;5.57;1.40;;;16.50;99.90;;;;;;7312728;32;20499;-55
2023/09/13 18:18:10;;;;;;;4.00;1.52;;;16.50;99.90;;;;;;7312482;32;20115;-55
2023/09/13 18:22:12;;;;;;;2.35;1.15;;;16.50;99.90;;;;;;7304107;32;20137;-54
2023/09/13 18:26:17;;;;;;;5.57;1.30;;;16.50;99.90;;;;;;7300838;32;20215;-54
2023/09/13 18:30:19;;;;;;;5.37;1.40;;;16.40;99.90;;;;;;7312849;32;20108;-55
2023/09/13 18:34:21;;;;;;;4.80;1.60;;;16.40;99.90;;;;;;7304987;32;20223;-54
2023/09/13 18:38:22;;;;;;;6.43;1.75;;;16.30;99.90;;;;;;7313179;32;20221;-54
2023/09/13 18:42:24;;;;;;;5.37;1.37;;;16.30;99.90;;;;;;7304109;32;20099;-54
2023/09/13 18:46:26;;;;;;;4.70;1.23;;;16.30;99.90;;;;;;7303469;32;20235;-54
2023/09/13 18:50:28;;;;;;;5.15;1.65;;;16.30;99.90;;;;;;7303311;32;20131;-55
2023/09/13 18:54:29;;;;;;;5.47;1.40;;;16.30;99.90;;;;;;7283225;32;20108;-55
2023/09/13 18:58:31;;;;;;;5.68;1.52;;;16.30;99.90;;;;;;7294865;32;20104;-54
2023/09/13 19:02:33;;;;;;;5.60;1.73;;;16.30;99.90;;;;;;7293303;32;20185;-55
2023/09/13 19:06:35;;;;;;;3.05;1.52;;;16.30;99.90;;;;;;7305919;32;20750;-56
2023/09/13 19:10:44;;;;;;;3.87;1.33;;;16.20;99.90;;;;;;7295845;32;20108;-56
2023/09/13 19:14:51;;;;;;;5.20;1.80;;;16.20;99.90;;;;;;7296169;32;20771;-56
2023/09/13 19:18:56;;;;;;;3.67;1.60;;;16.20;99.90;;;;;;7296143;32;20230;-57
2023/09/13 19:22:58;;;;;;;6.70;1.60;;;16.10;99.90;;;;;;7289719;32;20237;-56
2023/09/13 19:27:00;;;;;;;3.12;1.55;;;16.10;99.90;;;;;;7304341;32;20580;-56
2023/09/13 19:31:03;;;;;;;7.32;1.67;;;16.10;99.90;;;;;;7295762;32;20445;-56
2023/09/13 19:35:06;;;;;;;4.22;1.87;;;16.10;99.90;;;;;;7295689;32;20208;-56
2023/09/13 19:39:07;;;;;;;3.67;1.90;;;16.20;99.90;;;;;;7302441;32;20105;-56
2023/09/13 19:43:09;;;;;;;2.58;1.30;;;16.20;99.90;;;;;;7294988;32;20166;-56
2023/09/13 19:47:11;;;;;;;2.80;1.45;;;16.10;99.90;;;;;;7294895;32;20183;-56
2023/09/13 19:51:13;;;;;;;3.60;1.62;;;16.00;99.90;;;;;;7285519;32;20209;-56
2023/09/13 19:55:15;;;;;;;5.85;2.00;;;16.00;99.90;;;;;;7298856;32;20430;-56
2023/09/13 19:59:16;;;;;;;2.75;1.70;;;15.90;99.90;;;;;;7303709;32;20177;-55
2023/09/13 20:03:18;;;;;;;6.78;1.70;;;15.80;99.90;;;;;;7300317;32;20186;-55
2023/09/13 20:07:20;;;;;;;4.32;1.73;;;15.80;99.90;;;;;;7303326;32;20128;-59
2023/09/13 20:11:22;;;;;;;13.82;2.05;;;15.70;99.90;;;;;;7304826;32;20166;-55
2023/09/13 20:15:26;;;;;;;13.10;2.00;;;15.60;99.90;;;;;;7305099;32;20651;-56
2023/09/13 20:19:27;;;;;;;5.43;1.85;;;15.70;99.90;;;;;;7289302;32;20100;-55
2023/09/13 20:23:30;;;;;;;7.15;1.90;;;15.70;99.90;;;;;;7302419;32;20258;-55
2023/09/13 20:27:32;;;;;;;8.20;1.80;;;15.70;99.90;;;;;;7303110;32;20443;-56
2023/09/13 20:31:34;;;;;;;4.28;1.50;;;15.60;99.90;;;;;;7289689;32;20135;-56
2023/09/13 20:35:36;;;;;;;5.90;1.95;;;15.60;99.90;;;;;;7303795;32;20104;-56
2023/09/13 20:39:38;;;;;;;11.75;1.83;;;15.60;99.90;;;;;;7285898;32;20092;-55
2023/09/13 20:43:40;;;;;;;8.15;2.47;;;15.50;99.90;;;;;;7289909;32;20169;-56
2023/09/13 20:47:42;;;;;;;5.93;1.80;;;15.40;99.90;;;;;;7303947;32;20099;-55
2023/09/13 20:51:44;;;;;;;3.62;1.77;;;15.40;99.90;;;;;;7285122;32;20104;-55